Time;durP1;ratioP1;P1;durP2;ratioP2;P2;SDS_P1;SDS_P2;PMS_P1;PMS_P2;Temp;Humidity;BMP_temperature;BMP_pressure;BME280_temperature;BME280_humidity;BME280_pressure;Samples;Min_cycle;Max_cycle;Signal;HPM_P1;HPM_P2
2022/06/25 00:02:25;;;;;;;;;;;15.90;99.90;;;;;;5086564;28;20007;-71
2022/06/25 00:07:38;;;;;;;;;;;15.70;99.90;;;;;;5082370;28;20323;-70
2022/06/25 00:10:05;;;;;;;;;;;15.70;99.90;;;;;;5053031;28;19924;-70
2022/06/25 00:12:31;;;;;;;;;;;15.70;99.90;;;;;;5055127;28;19924;-70
2022/06/25 00:14:59;;;;;;;;;;;15.70;99.90;;;;;;5086338;28;20406;-71
2022/06/25 00:17:26;;;;;;;;;;;15.70;99.90;;;;;;5054120;28;19916;-70
2022/06/25 00:19:53;;;;;;;;;;;15.70;99.90;;;;;;5054332;28;19932;-70
2022/06/25 00:22:20;;;;;;;;;;;15.60;99.90;;;;;;5054679;28;19916;-70
2022/06/25 00:24:46;;;;;;;;;;;15.60;99.90;;;;;;5053988;28;20356;-70
2022/06/25 00:27:13;;;;;;;;;;;15.50;99.90;;;;;;5054307;28;20241;-70
2022/06/25 00:29:40;;;;;;;;;;;15.40;99.90;;;;;;5053926;28;19924;-70
2022/06/25 00:32:09;;;;;;;;;;;15.30;99.90;;;;;;5054738;28;19920;-70
2022/06/25 00:34:37;;;;;;;;;;;15.20;99.90;;;;;;5054178;28;19917;-70
2022/06/25 00:37:04;;;;;;;;;;;15.20;99.90;;;;;;5053720;28;19928;-70
2022/06/25 00:39:33;;;;;;;;;;;15.10;99.90;;;;;;5054083;28;19943;-70
2022/06/25 00:42:00;;;;;;;;;;;15.10;99.90;;;;;;5054051;28;20271;-70
2022/06/25 00:44:27;;;;;;;;;;;15.00;99.90;;;;;;5054058;28;20267;-70
2022/06/25 00:46:54;;;;;;;;;;;15.00;99.90;;;;;;5054042;28;19916;-69
2022/06/25 00:49:21;;;;;;;;;;;15.00;99.90;;;;;;5053045;28;20348;-70
2022/06/25 00:51:48;;;;;;;;;;;14.90;99.90;;;;;;5052810;28;19923;-66
2022/06/25 00:54:16;;;;;;;;;;;14.80;99.90;;;;;;5085649;28;19917;-66
2022/06/25 00:56:49;;;;;;;;;;;14.80;99.90;;;;;;5053850;28;20333;-69
2022/06/25 00:59:22;;;;;;;;;;;14.90;99.90;;;;;;5053007;28;19924;-65
2022/06/25 01:01:48;;;;;;;;;;;14.90;99.90;;;;;;5087122;28;19917;-66
2022/06/25 01:04:15;;;;;;;;;;;14.80;99.90;;;;;;5053613;28;19958;-66
2022/06/25 01:06:42;;;;;;;;;;;14.70;99.90;;;;;;5085769;28;20368;-64
2022/06/25 01:09:09;;;;;;;;;;;14.70;99.90;;;;;;5053989;28;19923;-63
2022/06/25 01:11:36;;;;;;;;;;;14.60;99.90;;;;;;5053426;28;19917;-65
2022/06/25 01:14:09;;;;;;;;;;;14.60;99.90;;;;;;5053704;28;20288;-66
2022/06/25 01:16:36;;;;;;;;;;;14.60;99.90;;;;;;5052167;28;20327;-66
2022/06/25 01:19:07;;;;;;;;;;;14.60;99.90;;;;;;5052187;28;19927;-66
2022/06/25 01:21:35;;;;;;;;;;;14.60;99.90;;;;;;5054248;28;19955;-66
2022/06/25 01:24:03;;;;;;;;;;;14.60;99.90;;;;;;5053682;28;20295;-63
2022/06/25 01:26:31;;;;;;;;;;;14.60;99.90;;;;;;5086308;28;19916;-63
2022/06/25 01:28:58;;;;;;;;;;;14.70;99.90;;;;;;5054282;28;19917;-65
2022/06/25 01:31:25;;;;;;;;;;;14.80;99.90;;;;;;5054245;28;20003;-66
2022/06/25 01:33:52;;;;;;;;;;;14.80;99.90;;;;;;5054375;28;19916;-66
2022/06/25 01:36:19;;;;;;;;;;;14.70;99.90;;;;;;5054319;28;20295;-66
2022/06/25 01:38:45;;;;;;;;;;;14.70;99.90;;;;;;5054070;28;19917;-66
2022/06/25 01:41:12;;;;;;;;;;;14.60;99.90;;;;;;5054464;28;19916;-66
2022/06/25 01:43:39;;;;;;;;;;;14.60;99.90;;;;;;5053530;28;19923;-66
2022/06/25 01:46:06;;;;;;;;;;;14.50;99.90;;;;;;5053550;28;19923;-66
2022/06/25 01:48:33;;;;;;;;;;;14.40;99.90;;;;;;5052966;28;19936;-66
2022/06/25 01:51:00;;;;;;;;;;;14.40;99.90;;;;;;5052954;28;19917;-66
2022/06/25 01:53:27;;;;;;;;;;;14.30;99.90;;;;;;5052985;28;20352;-66
2022/06/25 01:55:54;;;;;;;;;;;14.30;99.90;;;;;;5053220;28;20019;-66
2022/06/25 01:58:21;;;;;;;;;;;14.20;99.90;;;;;;5053344;28;19999;-66
2022/06/25 02:00:48;;;;;;;;;;;14.20;99.90;;;;;;5055680;28;19917;-65
2022/06/25 02:03:15;;;;;;;;;;;14.20;99.90;;;;;;5056945;28;19924;-66
2022/06/25 02:05:57;;;;;;;;;;;14.20;99.90;;;;;;5056868;28;19964;-66
2022/06/25 02:08:33;;;;;;;;;;;14.10;99.90;;;;;;5056278;28;20276;-66
2022/06/25 02:11:03;;;;;;;;;;;14.10;99.90;;;;;;5088579;28;19917;-66
2022/06/25 02:13:29;;;;;;;;;;;14.10;99.90;;;;;;5088744;28;19924;-66
2022/06/25 02:15:56;;;;;;;;;;;14.20;99.90;;;;;;5089690;28;19916;-66
2022/06/25 02:18:23;;;;;;;;;;;14.20;99.90;;;;;;5057219;28;19983;-66
2022/06/25 02:20:50;;;;;;;;;;;14.10;99.90;;;;;;5056307;28;19917;-66
2022/06/25 02:23:17;;;;;;;;;;;14.10;99.90;;;;;;5056820;28;19924;-66
2022/06/25 02:25:44;;;;;;;;;;;14.10;99.90;;;;;;5088223;28;19920;-66
2022/06/25 02:28:13;;;;;;;;;;;14.10;99.90;;;;;;5056156;28;20011;-66
2022/06/25 02:30:40;;;;;;;;;;;14.10;99.90;;;;;;5056082;28;20356;-66
2022/06/25 02:33:13;;;;;;;;;;;14.10;99.90;;;;;;5056108;28;19924;-65
2022/06/25 02:35:41;;;;;;;;;;;14.00;99.90;;;;;;5056361;28;19917;-66
2022/06/25 02:38:09;;;;;;;;;;;14.00;99.90;;;;;;5055922;28;19952;-66
2022/06/25 02:40:35;;;;;;;;;;;14.00;99.90;;;;;;5087908;28;19917;-66
2022/06/25 02:43:02;;;;;;;;;;;14.00;99.90;;;;;;5057007;28;19923;-66
2022/06/25 02:45:29;;;;;;;;;;;14.00;99.90;;;;;;5056167;28;19920;-66
2022/06/25 02:47:56;;;;;;;;;;;13.90;99.90;;;;;;5055742;28;19917;-66
2022/06/25 02:50:23;;;;;;;;;;;13.90;99.90;;;;;;5055984;28;19920;-66
2022/06/25 02:52:50;;;;;;;;;;;13.90;99.90;;;;;;5055973;28;19966;-65
2022/06/25 02:55:17;;;;;;;;;;;13.90;99.90;;;;;;5055692;28;19923;-66
2022/06/25 03:00:29;;;;;;;;;;;13.90;99.90;;;;;;5056501;28;19917;-66
2022/06/25 03:02:56;;;;;;;;;;;13.90;99.90;;;;;;5088259;28;19923;-66
2022/06/25 03:05:23;;;;;;;;;;;13.90;99.90;;;;;;5055386;28;19924;-66
2022/06/25 03:07:50;;;;;;;;;;;13.90;99.90;;;;;;5055503;28;19917;-66
2022/06/25 03:10:16;;;;;;;;;;;13.90;99.90;;;;;;5055370;28;19917;-66
2022/06/25 03:12:43;;;;;;;;;;;13.80;99.90;;;;;;5055497;28;19917;-56
2022/06/25 03:15:10;;;;;;;;;;;13.90;99.90;;;;;;5055357;28;19917;-64
2022/06/25 03:17:37;;;;;;;;;;;13.90;99.90;;;;;;5056019;28;20198;-65
2022/06/25 03:20:04;;;;;;;;;;;13.80;99.90;;;;;;5055438;28;19917;-65
2022/06/25 03:22:31;;;;;;;;;;;13.80;99.90;;;;;;5087227;28;19924;-65
2022/06/25 03:24:58;;;;;;;;;;;13.80;99.90;;;;;;5055394;28;19924;-65
2022/06/25 03:27:24;;;;;;;;;;;13.70;99.90;;;;;;5055336;28;19927;-65
2022/06/25 03:29:51;;;;;;;;;;;13.70;99.90;;;;;;5087037;28;20352;-65
2022/06/25 03:32:18;;;;;;;;;;;13.60;99.90;;;;;;5054947;28;19917;-65
2022/06/25 03:34:45;;;;;;;;;;;13.70;99.90;;;;;;5055002;28;19924;-65
2022/06/25 03:37:12;;;;;;;;;;;13.70;99.90;;;;;;5055117;28;19916;-65
2022/06/25 03:39:38;;;;;;;;;;;13.60;99.90;;;;;;5055654;28;19917;-65
2022/06/25 03:42:05;;;;;;;;;;;13.60;99.90;;;;;;5054983;28;19920;-65
2022/06/25 03:44:32;;;;;;;;;;;13.60;99.90;;;;;;5055023;28;19923;-65
2022/06/25 03:46:59;;;;;;;;;;;13.60;99.90;;;;;;5087053;28;20011;-65
2022/06/25 03:49:26;;;;;;;;;;;13.50;99.90;;;;;;5054522;28;19916;-65
2022/06/25 03:51:53;;;;;;;;;;;13.50;99.90;;;;;;5053398;28;20360;-65
2022/06/25 03:54:20;;;;;;;;;;;13.50;99.90;;;;;;5055450;28;19917;-65
2022/06/25 03:56:47;;;;;;;;;;;13.50;99.90;;;;;;5054812;28;19916;-65
2022/06/25 03:59:14;;;;;;;;;;;13.40;99.90;;;;;;5055289;28;19920;-65
2022/06/25 04:01:41;;;;;;;;;;;13.40;99.90;;;;;;5054747;28;19916;-65
2022/06/25 04:04:08;;;;;;;;;;;13.40;99.90;;;;;;5054677;28;19920;-65
2022/06/25 04:06:34;;;;;;;;;;;13.40;99.90;;;;;;5054971;28;19987;-65
2022/06/25 04:09:01;;;;;;;;;;;13.40;99.90;;;;;;5087345;28;19917;-65
2022/06/25 04:11:28;;;;;;;;;;;13.40;99.90;;;;;;5086618;28;19920;-65
2022/06/25 04:13:55;;;;;;;;;;;13.40;99.90;;;;;;5054183;28;19930;-65
2022/06/25 04:16:22;;;;;;;;;;;13.40;99.90;;;;;;5086256;28;20360;-65
2022/06/25 04:18:49;;;;;;;;;;;13.50;99.90;;;;;;5054409;28;20003;-65
2022/06/25 04:21:16;;;;;;;;;;;13.50;99.90;;;;;;5054407;28;19979;-65
2022/06/25 04:23:42;;;;;;;;;;;13.50;99.90;;;;;;5054076;28;19924;-65
2022/06/25 04:26:09;;;;;;;;;;;13.50;99.90;;;;;;5054571;28;19924;-65
2022/06/25 04:31:22;;;;;;;;;;;13.50;99.90;;;;;;5054231;28;20390;-65
2022/06/25 04:33:48;;;;;;;;;;;13.60;99.90;;;;;;5053908;28;19917;-65
2022/06/25 04:36:15;;;;;;;;;;;13.60;99.90;;;;;;5052874;28;19920;-65
2022/06/25 04:38:42;;;;;;;;;;;13.60;99.90;;;;;;5054138;28;20371;-65
2022/06/25 04:41:09;;;;;;;;;;;13.60;99.90;;;;;;5054353;28;19924;-65
2022/06/25 04:43:35;;;;;;;;;;;13.70;99.90;;;;;;5054070;28;19929;-65
2022/06/25 04:46:02;;;;;;;;;;;13.80;99.90;;;;;;5052133;28;19916;-65
2022/06/25 04:48:29;;;;;;;;;;;13.90;99.90;;;;;;5053671;28;19917;-65
2022/06/25 04:50:56;;;;;;;;;;;14.00;99.90;;;;;;5053595;28;19917;-65
2022/06/25 04:53:23;;;;;;;;;;;14.00;99.90;;;;;;5054184;28;19916;-65
2022/06/25 04:55:50;;;;;;;;;;;14.10;99.90;;;;;;5053820;28;20340;-65
2022/06/25 04:58:16;;;;;;;;;;;14.10;99.90;;;;;;5053591;28;19917;-65
2022/06/25 05:00:43;;;;;;;;;;;14.20;99.90;;;;;;5053812;28;20275;-65
2022/06/25 05:03:10;;;;;;;;;;;14.50;99.90;;;;;;5053800;28;19960;-65
2022/06/25 05:05:37;;;;;;;;;;;14.90;99.90;;;;;;5054174;28;19916;-65
2022/06/25 05:08:03;;;;;;;;;;;15.20;99.90;;;;;;5053462;28;20349;-65
2022/06/25 05:10:31;;;;;;;;;;;15.30;99.90;;;;;;5053671;28;19916;-65
2022/06/25 05:13:12;;;;;;;;;;;15.20;99.90;;;;;;5053376;28;19923;-65
2022/06/25 05:15:40;;;;;;;;;;;15.20;99.90;;;;;;5054549;28;19923;-65
2022/06/25 05:18:07;;;;;;;;;;;15.70;99.90;;;;;;5085755;28;19920;-65
2022/06/25 05:20:38;;;;;;;;;;;15.90;99.90;;;;;;5053338;28;19916;-65
2022/06/25 05:23:05;;;;;;;;;;;15.80;99.90;;;;;;5053926;28;19918;-65
2022/06/25 05:25:32;;;;;;;;;;;15.90;99.90;;;;;;5086463;28;19922;-65
2022/06/25 05:27:58;;;;;;;;;;;16.20;99.90;;;;;;5053273;28;19924;-65
2022/06/25 05:30:25;;;;;;;;;;;16.60;99.90;;;;;;5053495;28;19920;-65
2022/06/25 05:32:52;;;;;;;;;;;16.80;99.90;;;;;;5054146;28;19917;-65
2022/06/25 05:35:19;;;;;;;;;;;16.80;99.90;;;;;;5055865;28;19956;-65
2022/06/25 05:37:46;;;;;;;;;;;16.80;99.90;;;;;;5089567;28;20007;-65
2022/06/25 05:40:12;;;;;;;;;;;16.60;99.90;;;;;;5056200;28;19916;-65
2022/06/25 05:42:39;;;;;;;;;;;16.50;99.90;;;;;;5057427;28;19916;-65
2022/06/25 05:45:06;;;;;;;;;;;16.30;99.90;;;;;;5057323;28;19964;-65
2022/06/25 05:47:33;;;;;;;;;;;16.30;99.90;;;;;;5089154;28;19924;-65
2022/06/25 05:50:00;;;;;;;;;;;16.20;99.90;;;;;;5088838;28;19917;-65
2022/06/25 05:52:27;;;;;;;;;;;16.20;99.90;;;;;;5056920;28;19924;-65
2022/06/25 05:54:54;;;;;;;;;;;16.40;99.90;;;;;;5056870;28;20233;-66
2022/06/25 05:57:21;;;;;;;;;;;16.50;99.90;;;;;;5089473;28;19917;-65
2022/06/25 05:59:48;;;;;;;;;;;16.70;99.90;;;;;;5057648;28;19917;-65
2022/06/25 06:02:14;;;;;;;;;;;16.80;99.90;;;;;;5055811;28;19916;-65
2022/06/25 06:04:41;;;;;;;;;;;17.00;99.90;;;;;;5057307;28;19923;-65
2022/06/25 06:07:08;;;;;;;;;;;17.20;99.90;;;;;;5090054;28;19955;-65
2022/06/25 06:09:35;;;;;;;;;;;17.40;99.90;;;;;;5056477;28;19924;-65
2022/06/25 06:12:02;;;;;;;;;;;17.60;99.90;;;;;;5088657;28;20007;-65
2022/06/25 06:14:29;;;;;;;;;;;17.60;99.90;;;;;;5057025;28;19917;-66
2022/06/25 06:16:56;;;;;;;;;;;17.40;99.90;;;;;;5088937;28;19917;-66
2022/06/25 06:19:23;;;;;;;;;;;17.40;99.90;;;;;;5056427;28;19963;-66
2022/06/25 06:21:50;;;;;;;;;;;17.40;99.90;;;;;;5056714;28;19916;-65
2022/06/25 06:24:17;;;;;;;;;;;17.30;99.90;;;;;;5056261;28;19931;-66
2022/06/25 06:26:43;;;;;;;;;;;17.20;99.90;;;;;;5057162;28;19917;-65
2022/06/25 06:29:11;;;;;;;;;;;17.10;99.90;;;;;;5056176;28;19931;-65
2022/06/25 06:31:37;;;;;;;;;;;17.00;99.90;;;;;;5057161;28;20301;-65
2022/06/25 06:34:04;;;;;;;;;;;17.00;99.90;;;;;;5056762;28;19923;-66
2022/06/25 06:36:31;;;;;;;;;;;16.90;99.90;;;;;;5057229;28;19954;-65
2022/06/25 06:38:58;;;;;;;;;;;16.80;99.90;;;;;;5055819;28;19924;-65
2022/06/25 06:41:25;;;;;;;;;;;16.90;99.90;;;;;;5056324;28;19917;-65
2022/06/25 06:43:51;;;;;;;;;;;16.90;99.90;;;;;;5055926;28;19917;-65
2022/06/25 06:46:19;;;;;;;;;;;16.80;99.90;;;;;;5055660;28;19916;-65
2022/06/25 06:48:46;;;;;;;;;;;16.80;99.90;;;;;;5054939;28;20059;-65
2022/06/25 06:51:12;;;;;;;;;;;16.90;99.90;;;;;;5056009;28;19923;-66
2022/06/25 06:53:39;;;;;;;;;;;16.80;99.90;;;;;;5056545;28;19952;-65
2022/06/25 06:56:07;;;;;;;;;;;16.80;99.90;;;;;;5056577;28;19927;-65
2022/06/25 06:58:33;;;;;;;;;;;16.90;99.90;;;;;;5055788;28;19916;-65
2022/06/25 07:01:00;;;;;;;;;;;17.10;99.90;;;;;;5087566;28;19916;-64
2022/06/25 07:03:28;;;;;;;;;;;17.20;99.90;;;;;;5055576;28;19924;-65
2022/06/25 07:05:55;;;;;;;;;;;17.30;99.90;;;;;;5055823;28;19916;-65
2022/06/25 07:08:22;;;;;;;;;;;17.50;99.90;;;;;;5055425;28;19923;-65
2022/06/25 07:10:49;;;;;;;;;;;17.70;99.90;;;;;;5055336;28;19916;-65
2022/06/25 07:13:16;;;;;;;;;;;17.70;99.90;;;;;;5055869;28;19916;-65
2022/06/25 07:15:42;;;;;;;;;;;17.70;99.90;;;;;;5056191;28;19924;-65
2022/06/25 07:18:09;;;;;;;;;;;17.60;99.90;;;;;;5055600;28;19917;-65
2022/06/25 07:20:36;;;;;;;;;;;17.60;99.90;;;;;;5055571;28;19921;-65
2022/06/25 07:23:04;;;;;;;;;;;17.50;99.90;;;;;;5086988;28;20383;-64
2022/06/25 07:25:31;;;;;;;;;;;17.50;99.90;;;;;;5055180;28;19916;-65
2022/06/25 07:27:58;;;;;;;;;;;17.50;99.90;;;;;;5055414;28;19917;-64
2022/06/25 07:30:24;;;;;;;;;;;17.30;99.90;;;;;;5055306;28;19917;-64
2022/06/25 07:32:51;;;;;;;;;;;17.10;99.90;;;;;;5055815;28;19925;-64
2022/06/25 07:35:18;;;;;;;;;;;17.10;99.90;;;;;;5055638;28;19917;-64
2022/06/25 07:37:45;;;;;;;;;;;17.00;99.90;;;;;;5055430;28;19923;-64
2022/06/25 07:40:22;;;;;;;;;;;17.00;99.90;;;;;;5055058;28;19923;-64
2022/06/25 07:42:49;;;;;;;;;;;17.10;99.90;;;;;;5054616;28;20007;-64
2022/06/25 07:45:15;;;;;;;;;;;17.20;99.90;;;;;;5055001;28;19916;-64
2022/06/25 07:47:42;;;;;;;;;;;17.30;99.90;;;;;;5054617;28;19931;-64
2022/06/25 07:52:54;;;;;;;;;;;17.60;99.90;;;;;;5055383;28;19924;-64
2022/06/25 07:55:21;;;;;;;;;;;17.80;99.90;;;;;;5054570;28;19925;-63
2022/06/25 07:57:48;;;;;;;;;;;17.90;99.90;;;;;;5086366;28;19923;-61
2022/06/25 08:00:15;;;;;;;;;;;18.10;99.90;;;;;;5054390;28;19927;-65
2022/06/25 08:02:42;;;;;;;;;;;18.20;99.90;;;;;;5055536;28;19923;-65
2022/06/25 08:05:09;;;;;;;;;;;18.40;99.90;;;;;;5086613;28;19917;-65
2022/06/25 08:07:35;;;;;;;;;;;18.60;99.90;;;;;;5054309;28;19920;-66
2022/06/25 08:10:03;;;;;;;;;;;18.60;99.90;;;;;;5055256;28;20283;-65
2022/06/25 08:12:30;;;;;;;;;;;18.80;99.90;;;;;;5054216;28;19920;-65
2022/06/25 08:14:57;;;;;;;;;;;18.90;99.90;;;;;;5054234;28;19928;-65
2022/06/25 08:17:24;;;;;;;;;;;19.10;99.90;;;;;;5054333;28;19917;-65
2022/06/25 08:19:50;;;;;;;;;;;19.20;99.90;;;;;;5086271;28;19926;-66
2022/06/25 08:22:17;;;;;;;;;;;19.30;99.90;;;;;;5086296;28;19920;-65
2022/06/25 08:24:44;;;;;;;;;;;19.30;99.90;;;;;;5054649;28;19939;-66
2022/06/25 08:27:11;;;;;;;;;;;19.20;99.90;;;;;;5086847;28;19916;-65
2022/06/25 08:29:37;;;;;;;;;;;19.20;99.90;;;;;;5086860;28;19942;-65
2022/06/25 08:32:05;;;;;;;;;;;19.30;99.90;;;;;;5054752;28;19916;-65
2022/06/25 08:34:31;;;;;;;;;;;19.10;99.90;;;;;;5054080;28;19991;-65
2022/06/25 08:36:58;;;;;;;;;;;19.00;99.90;;;;;;5054019;28;19924;-66
2022/06/25 08:39:25;;;;;;;;;;;18.80;99.90;;;;;;5053916;28;20012;-65
2022/06/25 08:41:52;;;;;;;;;;;18.60;99.90;;;;;;5085976;28;19917;-65
2022/06/25 08:44:19;;;;;;;;;;;18.50;99.90;;;;;;5069423;28;19964;-65
2022/06/25 08:46:45;;;;;;;;;;;18.50;99.90;;;;;;5054280;28;19923;-66
2022/06/25 08:49:12;;;;;;;;;;;18.80;99.90;;;;;;5085601;28;19923;-66
2022/06/25 08:51:39;;;;;;;;;;;19.00;99.90;;;;;;5053861;28;19917;-65
2022/06/25 08:54:06;;;;;;;;;;;19.30;99.90;;;;;;5053494;28;19916;-66
2022/06/25 08:56:34;;;;;;;;;;;19.60;99.90;;;;;;5053897;28;19924;-65
2022/06/25 08:59:01;;;;;;;;;;;19.80;99.90;;;;;;5053836;28;19917;-66
2022/06/25 09:01:28;;;;;;;;;;;19.90;99.90;;;;;;5085819;28;19917;-63
2022/06/25 09:03:55;;;;;;;;;;;19.90;99.90;;;;;;5053599;28;19995;-64
2022/06/25 09:06:22;;;;;;;;;;;19.90;99.90;;;;;;5054489;28;20284;-64
2022/06/25 09:09:07;;;;;;;;;;;19.90;99.90;;;;;;5054439;28;20264;-65
2022/06/25 09:11:35;;;;;;;;;;;19.90;99.90;;;;;;5060279;28;19917;-64
2022/06/25 09:14:21;;;;;;;;;;;20.00;99.90;;;;;;5092826;28;19940;-64
2022/06/25 09:16:55;;;;;;;;;;;20.30;99.90;;;;;;5060826;28;19917;-64
2022/06/25 09:19:28;;;;;;;;;;;20.30;99.90;;;;;;5059920;28;19916;-64
2022/06/25 09:21:56;;;;;;;;;;;20.10;99.50;;;;;;5059898;28;20014;-64
2022/06/25 09:24:24;;;;;;;;;;;20.00;99.90;;;;;;5059832;28;19916;-64
2022/06/25 09:26:51;;;;;;;;;;;19.90;99.90;;;;;;5092805;28;20400;-64
2022/06/25 09:29:18;;;;;;;;;;;20.00;99.90;;;;;;5060019;28;20336;-64
2022/06/25 09:31:45;;;;;;;;;;;20.30;99.90;;;;;;5092376;28;19916;-64
2022/06/25 09:34:12;;;;;;;;;;;20.30;99.60;;;;;;5092036;28;19966;-64
2022/06/25 09:36:39;;;;;;;;;;;20.30;99.90;;;;;;5059833;28;19920;-64
2022/06/25 09:39:05;;;;;;;;;;;20.50;96.30;;;;;;5059702;28;19928;-64
2022/06/25 09:41:48;;;;;;;;;;;20.50;96.10;;;;;;5092001;28;19923;-64
2022/06/25 09:44:16;;;;;;;;;;;20.70;96.60;;;;;;5060105;28;19917;-64
2022/06/25 09:46:52;;;;;;;;;;;20.80;97.70;;;;;;5060092;28;19916;-64
2022/06/25 09:49:23;;;;;;;;;;;20.90;98.10;;;;;;5060423;28;19916;-64
2022/06/25 09:51:59;;;;;;;;;;;21.10;97.20;;;;;;5091586;28;19924;-65
2022/06/25 09:54:26;;;;;;;;;;;21.40;97.30;;;;;;5092270;28;20263;-65
2022/06/25 09:56:54;;;;;;;;;;;21.30;94.60;;;;;;5059746;28;19923;-65
2022/06/25 09:59:25;;;;;;;;;;;21.20;93.50;;;;;;5059754;28;20019;-64
2022/06/25 10:01:51;;;;;;;;;;;21.00;92.80;;;;;;5059766;28;19928;-63
2022/06/25 10:04:20;;;;;;;;;;;20.80;93.20;;;;;;5091944;28;20429;-65
2022/06/25 10:06:47;;;;;;;;;;;20.90;96.20;;;;;;5060785;28;19916;-65
2022/06/25 10:09:15;;;;;;;;;;;21.00;93.70;;;;;;5059939;28;19970;-66
2022/06/25 10:11:41;;;;;;;;;;;21.00;95.50;;;;;;5060366;28;19916;-66
2022/06/25 10:14:08;;;;;;;;;;;21.10;91.80;;;;;;5091565;28;19920;-66
2022/06/25 10:16:35;;;;;;;;;;;21.30;93.50;;;;;;5092758;28;19928;-66
2022/06/25 10:19:03;;;;;;;;;;;21.30;92.80;;;;;;5059734;28;20348;-67
2022/06/25 10:21:30;;;;;;;;;;;21.20;91.70;;;;;;5088065;28;19917;-65
2022/06/25 10:24:00;;;;;;;;;;;20.90;92.40;;;;;;5057155;28;20335;-66
2022/06/25 10:26:27;;;;;;;;;;;20.70;93.40;;;;;;5056233;28;20011;-66
2022/06/25 10:28:53;;;;;;;;;;;20.80;91.80;;;;;;5088751;28;20224;-66
2022/06/25 10:31:20;;;;;;;;;;;20.80;91.10;;;;;;5057297;28;20291;-66
2022/06/25 10:33:52;;;;;;;;;;;20.80;86.90;;;;;;5055252;28;19947;-64
2022/06/25 10:36:22;;;;;;;;;;;21.10;91.70;;;;;;5089197;28;19917;-61
2022/06/25 10:38:49;;;;;;;;;;;21.30;90.50;;;;;;5072169;28;19917;-67
2022/06/25 10:44:03;;;;;;;;;;;21.50;91.50;;;;;;5084257;28;19924;-68
2022/06/25 10:46:36;;;;;;;;;;;21.50;90.20;;;;;;5057099;28;19939;-60
2022/06/25 10:49:07;;;;;;;;;;;21.40;90.40;;;;;;5056206;28;19932;-66
2022/06/25 10:51:41;;;;;;;;;;;21.20;89.40;;;;;;5056318;28;19917;-66
2022/06/25 10:54:24;;;;;;;;;;;21.10;86.60;;;;;;5055939;28;19923;-62
2022/06/25 10:56:55;;;;;;;;;;;21.00;86.90;;;;;;5055678;28;19942;-61
2022/06/25 10:59:39;;;;;;;;;;;21.10;86.20;;;;;;5055621;28;20363;-65
2022/06/25 11:02:07;;;;;;;;;;;21.20;87.70;;;;;;5057080;28;20351;-69
2022/06/25 11:04:34;;;;;;;;;;;21.40;88.30;;;;;;5055717;28;19944;-65
2022/06/25 11:07:11;;;;;;;;;;;21.50;88.20;;;;;;5056161;28;20359;-67
2022/06/25 11:09:38;;;;;;;;;;;21.70;87.90;;;;;;5087900;28;19916;-64
2022/06/25 11:12:06;;;;;;;;;;;21.70;85.60;;;;;;5087257;28;19917;-63
2022/06/25 11:14:33;;;;;;;;;;;21.80;87.90;;;;;;5087681;28;19916;-64
2022/06/25 11:17:07;;;;;;;;;;;21.80;87.00;;;;;;5056389;28;19917;-67
2022/06/25 11:19:39;;;;;;;;;;;21.80;88.30;;;;;;5055242;28;20376;-67
2022/06/25 11:22:06;;;;;;;;;;;21.80;85.20;;;;;;5055558;28;20244;-65
2022/06/25 11:24:33;;;;;;;;;;;21.60;83.50;;;;;;5055766;28;19916;-61
2022/06/25 11:29:49;;;;;;;;;;;21.60;81.00;;;;;;5083411;28;19916;-76
2022/06/25 11:32:20;;;;;;;;;;;21.60;80.90;;;;;;5054843;28;19916;-66
2022/06/25 11:35:04;;;;;;;;;;;21.70;79.70;;;;;;5055826;28;19924;-65
2022/06/25 11:37:31;;;;;;;;;;;21.60;80.60;;;;;;5055988;28;19971;-65
2022/06/25 11:39:59;;;;;;;;;;;21.70;79.60;;;;;;5055160;28;19920;-66
2022/06/25 11:42:26;;;;;;;;;;;21.60;79.00;;;;;;5054686;28;19923;-69
2022/06/25 11:44:53;;;;;;;;;;;21.70;79.50;;;;;;5070538;28;19917;-66
2022/06/25 11:47:27;;;;;;;;;;;21.80;80.50;;;;;;5055646;28;19916;-67
2022/06/25 11:49:54;;;;;;;;;;;21.90;82.40;;;;;;5054882;28;19916;-70
2022/06/25 11:52:22;;;;;;;;;;;21.90;81.90;;;;;;5054884;28;19916;-68
2022/06/25 11:54:49;;;;;;;;;;;21.80;82.70;;;;;;5069904;28;19921;-68
2022/06/25 11:57:17;;;;;;;;;;;21.70;80.20;;;;;;5054811;28;20007;-67
2022/06/25 11:59:44;;;;;;;;;;;21.50;79.10;;;;;;5054664;28;19923;-67
2022/06/25 12:02:11;;;;;;;;;;;21.50;78.10;;;;;;5087161;28;19932;-66
2022/06/25 12:04:47;;;;;;;;;;;21.50;78.50;;;;;;5054066;28;19917;-68
2022/06/25 12:07:21;;;;;;;;;;;21.70;80.80;;;;;;5055079;28;19917;-66
2022/06/25 12:09:48;;;;;;;;;;;22.00;80.80;;;;;;5069524;28;19924;-68
2022/06/25 12:12:17;;;;;;;;;;;22.00;80.90;;;;;;5085991;28;19931;-69
2022/06/25 12:14:45;;;;;;;;;;;22.00;81.20;;;;;;5054706;28;19917;-69
2022/06/25 12:17:12;;;;;;;;;;;21.90;81.00;;;;;;5054054;28;19916;-70
2022/06/25 12:19:49;;;;;;;;;;;21.90;81.10;;;;;;5054444;28;19921;-63
2022/06/25 12:22:22;;;;;;;;;;;22.00;81.00;;;;;;5055491;28;19917;-62
2022/06/25 12:24:49;;;;;;;;;;;22.10;81.40;;;;;;5054295;28;19928;-63
2022/06/25 12:27:16;;;;;;;;;;;22.20;80.20;;;;;;5086902;28;19917;-68
2022/06/25 12:29:47;;;;;;;;;;;22.20;80.00;;;;;;5053925;28;19916;-68
2022/06/25 12:32:14;;;;;;;;;;;22.20;76.70;;;;;;5054208;28;19917;-68
2022/06/25 12:34:45;;;;;;;;;;;22.20;74.30;;;;;;5085856;28;19923;-68
2022/06/25 12:37:12;;;;;;;;;;;22.40;78.00;;;;;;5054068;28;19917;-68
2022/06/25 12:39:44;;;;;;;;;;;22.80;75.80;;;;;;5085013;28;19922;-68
2022/06/25 12:42:13;;;;;;;;;;;22.90;75.90;;;;;;5054809;28;19963;-69
2022/06/25 12:44:41;;;;;;;;;;;22.90;73.50;;;;;;5053713;28;19966;-68
2022/06/25 12:47:08;;;;;;;;;;;22.70;74.70;;;;;;5053913;28;20284;-68
2022/06/25 12:49:47;;;;;;;;;;;22.70;75.40;;;;;;5085930;28;19917;-69
2022/06/25 12:52:19;;;;;;;;;;;22.50;74.10;;;;;;5054526;28;19916;-68
2022/06/25 12:54:50;;;;;;;;;;;22.30;73.90;;;;;;5054692;28;19978;-69
2022/06/25 12:57:27;;;;;;;;;;;22.40;74.80;;;;;;5053773;28;19923;-69
2022/06/25 12:59:54;;;;;;;;;;;22.50;74.50;;;;;;5054431;28;19916;-69
2022/06/25 13:02:29;;;;;;;;;;;22.30;73.70;;;;;;5054419;28;19920;-69
2022/06/25 13:04:57;;;;;;;;;;;21.90;75.90;;;;;;5053481;28;19963;-69
2022/06/25 13:07:23;;;;;;;;;;;21.70;75.90;;;;;;5053957;28;20015;-69
2022/06/25 13:09:50;;;;;;;;;;;21.80;76.90;;;;;;5053699;28;19917;-68
2022/06/25 13:12:24;;;;;;;;;;;21.90;77.00;;;;;;5053357;28;19963;-68
2022/06/25 13:14:51;;;;;;;;;;;21.80;76.70;;;;;;5054531;28;19916;-68
2022/06/25 13:17:18;;;;;;;;;;;21.70;79.60;;;;;;5054343;28;19939;-66
2022/06/25 13:19:45;;;;;;;;;;;21.80;77.30;;;;;;5054671;28;19916;-69
2022/06/25 13:22:12;;;;;;;;;;;21.90;79.20;;;;;;5053233;28;19916;-69
2022/06/25 13:24:39;;;;;;;;;;;22.10;79.60;;;;;;5053575;28;20432;-69
2022/06/25 13:27:06;;;;;;;;;;;22.00;78.50;;;;;;5053487;28;19916;-69
2022/06/25 13:29:32;;;;;;;;;;;22.00;78.30;;;;;;5053225;28;20027;-70
2022/06/25 13:31:59;;;;;;;;;;;22.00;77.90;;;;;;5053444;28;20271;-69
2022/06/25 13:34:27;;;;;;;;;;;22.10;78.60;;;;;;5085067;28;20027;-70
2022/06/25 13:36:54;;;;;;;;;;;22.30;77.90;;;;;;5052059;28;19966;-70
2022/06/25 13:39:20;;;;;;;;;;;22.40;77.10;;;;;;5053468;28;19916;-70
2022/06/25 13:41:50;;;;;;;;;;;22.40;75.60;;;;;;5054114;28;19916;-71
2022/06/25 13:44:18;;;;;;;;;;;22.60;76.80;;;;;;5053030;28;19916;-70
2022/06/25 13:46:47;;;;;;;;;;;22.70;76.50;;;;;;5052989;28;19916;-70
2022/06/25 13:49:14;;;;;;;;;;;22.60;73.10;;;;;;5053001;28;19923;-69
2022/06/25 13:51:40;;;;;;;;;;;22.30;73.20;;;;;;5084965;28;19916;-70
2022/06/25 13:54:07;;;;;;;;;;;22.10;75.60;;;;;;5085950;28;19917;-70
2022/06/25 13:56:35;;;;;;;;;;;22.00;76.80;;;;;;5055750;28;19916;-68
2022/06/25 13:59:02;;;;;;;;;;;22.20;76.30;;;;;;5088582;28;20360;-69
2022/06/25 14:01:29;;;;;;;;;;;22.50;78.90;;;;;;5057237;28;19924;-69
2022/06/25 14:03:55;;;;;;;;;;;22.60;74.80;;;;;;5055303;28;19924;-69
2022/06/25 14:06:22;;;;;;;;;;;22.60;74.40;;;;;;5056581;28;20364;-66
2022/06/25 14:08:49;;;;;;;;;;;22.40;74.60;;;;;;5056891;28;20311;-69
2022/06/25 14:11:16;;;;;;;;;;;22.20;74.10;;;;;;5056932;28;19917;-68
2022/06/25 14:13:43;;;;;;;;;;;22.10;73.80;;;;;;5057255;28;19939;-70
2022/06/25 14:16:09;;;;;;;;;;;21.90;74.20;;;;;;5056527;28;19925;-69
2022/06/25 14:18:36;;;;;;;;;;;22.00;76.00;;;;;;5056713;28;20000;-68
2022/06/25 14:21:03;;;;;;;;;;;21.90;76.30;;;;;;5088929;28;19923;-69
2022/06/25 14:23:30;;;;;;;;;;;22.00;77.00;;;;;;5088636;28;19920;-67
2022/06/25 14:25:57;;;;;;;;;;;22.00;76.80;;;;;;5088689;28;19917;-67
2022/06/25 14:28:24;;;;;;;;;;;22.10;76.50;;;;;;5089094;28;19917;-68
2022/06/25 14:30:51;;;;;;;;;;;22.30;77.60;;;;;;5056530;28;19940;-68
2022/06/25 14:33:17;;;;;;;;;;;22.50;75.10;;;;;;5056973;28;19923;-68
2022/06/25 14:44:00;;;;;;;;;;;22.10;72.50;;;;;;5057059;28;19926;-68
2022/06/25 14:46:27;;;;;;;;;;;21.90;73.90;;;;;;5056063;28;19917;-68